Time;durP1;ratioP1;P1;durP2;ratioP2;P2;SDS_P1;SDS_P2;PMS_P1;PMS_P2;Temp;Humidity;BMP_temperature;BMP_pressure;BME280_temperature;BME280_humidity;BME280_pressure;Samples;Min_cycle;Max_cycle;Signal;HPM_P1;HPM_P2
2022/06/12 00:04:07;;;;;;;6.80;4.90;;;;;;;24.90;50.57;100199.49;103774;1315;73766;-89
2022/06/12 00:09:43;;;;;;;6.10;4.80;;;;;;;24.89;50.46;100195.09;103720;1315;71816;-89
2022/06/12 00:18:01;;;;;;;5.80;4.80;;;;;;;24.90;50.39;100191.00;103758;1315;75500;-90
2022/06/12 00:23:50;;;;;;;6.80;4.80;;;;;;;24.86;50.43;100188.56;101075;1315;71490;-88
2022/06/12 00:29:42;;;;;;;5.80;4.50;;;;;;;24.90;50.54;100198.00;103699;1315;68395;-91
2022/06/12 00:35:16;;;;;;;6.10;4.90;;;;;;;24.88;50.41;100199.13;103804;1315;81524;-90
2022/06/12 00:40:52;;;;;;;7.60;4.80;;;;;;;24.87;50.46;100198.95;103797;1315;67152;-89
2022/06/12 00:46:49;;;;;;;5.70;4.40;;;;;;;24.91;50.36;100186.20;103766;1315;73824;-90
2022/06/12 00:49:36;;;;;;;6.10;4.50;;;;;;;24.88;50.31;100182.70;99789;1315;5484511;-89
2022/06/12 00:55:25;;;;;;;6.10;4.30;;;;;;;24.87;50.40;100173.71;103755;1315;67801;-90
2022/06/12 00:58:30;;;;;;;7.20;4.90;;;;;;;24.89;50.35;100174.14;103730;1315;73808;-90
2022/06/12 01:10:02;;;;;;;9.10;4.70;;;;;;;24.89;50.36;100171.67;103769;1315;67869;-89
2022/06/12 01:15:43;;;;;;;5.80;4.20;;;;;;;24.85;50.48;100168.82;101281;1316;81937;-89
2022/06/12 01:21:51;;;;;;;7.20;4.50;;;;;;;24.87;50.54;100168.58;103736;1315;67884;31
2022/06/12 01:27:47;;;;;;;6.00;4.50;;;;;;;24.85;50.57;100168.66;103585;1315;74373;-90
2022/06/12 01:33:30;;;;;;;7.80;4.70;;;;;;;24.82;50.67;100172.45;103701;1316;72351;31
2022/06/12 01:39:38;;;;;;;5.70;4.80;;;;;;;24.85;50.84;100168.52;103757;1315;68708;31
2022/06/12 01:45:34;;;;;;;7.30;4.70;;;;;;;24.81;50.89;100172.91;103813;1315;82030;-90
2022/06/12 01:51:33;;;;;;;5.10;4.30;;;;;;;24.85;50.89;100173.04;103747;1315;68079;-91
2022/06/12 02:00:20;;;;;;;5.90;4.40;;;;;;;24.80;50.85;100173.92;103710;1319;80726;-91
2022/06/12 02:03:29;;;;;;;7.10;4.40;;;;;;;24.83;50.85;100175.55;103686;1319;71371;-90
2022/06/12 02:09:24;;;;;;;5.60;4.30;;;;;;;24.83;50.93;100174.02;103720;1315;67670;-88
2022/06/12 02:15:03;;;;;;;6.60;4.30;;;;;;;24.81;50.89;100173.59;103743;1318;81730;-89
2022/06/12 02:23:36;;;;;;;5.70;4.30;;;;;;;24.84;50.64;100174.00;103812;1315;68229;-89
2022/06/12 02:29:30;;;;;;;6.50;4.30;;;;;;;24.82;50.69;100166.41;103761;1315;81824;-90
2022/06/12 02:35:33;;;;;;;7.80;4.50;;;;;;;24.83;50.54;100171.12;103772;1318;67956;-90
2022/06/12 02:41:07;;;;;;;6.60;4.30;;;;;;;24.81;50.53;100169.89;103758;1315;74204;-88
2022/06/12 02:46:44;;;;;;;10.40;4.40;;;;;;;24.76;50.57;100169.69;103721;1315;72243;-89
2022/06/12 02:52:38;;;;;;;8.40;4.10;;;;;;;24.73;50.53;100178.70;103771;1315;67720;-90
2022/06/12 02:58:33;;;;;;;6.20;3.90;;;;;;;24.69;50.44;100174.58;103787;1315;81809;-90
2022/06/12 03:04:20;;;;;;;4.60;3.90;;;;;;;24.76;50.48;100181.15;103734;1315;68731;-89
2022/06/12 03:10:02;;;;;;;5.60;3.70;;;;;;;24.78;50.31;100182.66;103777;1315;74312;-90
2022/06/12 03:12:52;;;;;;;6.00;3.80;;;;;;;24.75;50.30;100181.64;103762;1318;82254;-89
2022/06/12 03:15:58;;;;;;;5.30;3.80;;;;;;;24.74;50.31;100179.70;103740;1316;72305;-91
2022/06/12 03:21:57;;;;;;;5.70;3.70;;;;;;;24.77;50.13;100172.48;103748;1315;67246;-90
2022/06/12 03:28:03;;;;;;;4.90;3.90;;;;;;;24.73;50.10;100173.45;103763;1315;81906;-90
2022/06/12 03:33:42;;;;;;;4.30;3.90;;;;;;;24.76;49.92;100170.96;103713;1315;67757;-89
2022/06/12 03:39:19;;;;;;;5.80;4.10;;;;;;;24.72;49.77;100166.14;103797;1315;74292;-89
2022/06/12 03:44:58;;;;;;;7.00;4.50;;;;;;;24.74;49.69;100163.23;103730;1315;72227;-87
2022/06/12 03:53:26;;;;;;;4.30;3.90;;;;;;;24.69;49.68;100162.39;103811;1316;67120;-90
2022/06/12 04:02:05;;;;;;;8.80;4.30;;;;;;;24.73;49.56;100160.33;103791;1315;67792;-90
2022/06/12 04:07:37;;;;;;;8.80;4.50;;;;;;;24.71;49.52;100160.41;103780;1315;74234;-89
2022/06/12 04:13:11;;;;;;;10.90;4.10;;;;;;;24.75;49.47;100157.51;103749;1315;67813;-91
2022/06/12 04:19:03;;;;;;;4.70;4.00;;;;;;;24.70;49.38;100157.23;103806;1315;68307;-90
2022/06/12 04:24:53;;;;;;;5.30;4.10;;;;;;;24.75;49.26;100156.53;103774;1315;81860;-89
2022/06/12 04:30:30;;;;;;;5.90;4.20;;;;;;;24.70;49.31;100162.58;103810;1315;67208;-89
2022/06/12 04:36:28;;;;;;;6.20;4.20;;;;;;;24.75;49.24;100162.55;103762;1315;74130;-90
2022/06/12 04:42:05;;;;;;;6.30;3.80;;;;;;;24.74;49.23;100163.39;103784;1316;72264;-90
2022/06/12 04:47:53;;;;;;;5.90;4.20;;;;;;;24.72;49.37;100163.79;103780;1318;67150;-88
2022/06/12 04:53:27;;;;;;;6.00;4.30;;;;;;;24.75;49.27;100162.14;103780;1316;81814;-90
2022/06/12 05:01:50;;;;;;;6.40;3.90;;;;;;;24.73;49.26;100165.46;103805;1315;67148;-88
2022/06/12 05:07:29;;;;;;;5.50;4.00;;;;;;;24.78;49.32;100162.40;103837;1315;81958;-89
2022/06/12 05:13:08;;;;;;;6.50;3.80;;;;;;;24.73;49.24;100170.09;103740;1315;68146;-89
2022/06/12 05:18:59;;;;;;;8.60;4.20;;;;;;;24.77;49.13;100177.06;103734;1315;74393;-91
2022/06/12 05:24:35;;;;;;;4.20;3.80;;;;;;;24.75;49.21;100185.18;103713;1316;72271;-90
2022/06/12 05:27:38;;;;;;;7.40;3.90;;;;;;;24.73;49.29;100181.79;103775;1315;67151;-89
2022/06/12 05:30:39;;;;;;;8.00;4.10;;;;;;;24.76;49.31;100182.84;103785;1315;67866;-90
2022/06/12 05:33:40;;;;;;;6.00;4.10;;;;;;;24.76;49.24;100185.00;103732;1315;74482;-90
2022/06/12 05:36:43;;;;;;;6.10;4.30;;;;;;;24.75;49.32;100183.59;103780;1315;81877;-89
2022/06/12 05:42:32;;;;;;;7.00;4.50;;;;;;;24.74;49.33;100185.46;103780;1315;67666;-89
2022/06/12 05:48:06;;;;;;;7.30;4.10;;;;;;;24.73;49.47;100186.08;103705;1315;74116;-89
2022/06/12 05:53:49;;;;;;;5.80;4.10;;;;;;;24.72;49.57;100192.65;103722;1315;72107;-89
2022/06/12 05:59:40;;;;;;;5.70;4.30;;;;;;;24.68;49.75;100194.91;102934;1315;67182;-90
2022/06/12 06:05:23;;;;;;;5.60;4.10;;;;;;;24.74;49.75;100192.25;103833;1316;82049;-90
2022/06/12 06:19:45;;;;;;;6.40;4.80;;;;;;;24.79;49.77;100199.84;103803;1315;81194;-89
2022/06/12 06:25:35;;;;;;;8.50;5.10;;;;;;;24.84;49.73;100199.66;103755;1317;67734;-90
2022/06/12 06:31:16;;;;;;;7.80;5.00;;;;;;;24.80;49.81;100200.03;103760;1315;74170;-88
2022/06/12 06:36:56;;;;;;;6.60;4.80;;;;;;;24.81;49.90;100197.26;103756;1316;67501;-90
2022/06/12 06:42:46;;;;;;;5.90;4.60;;;;;;;24.84;49.74;100198.34;103788;1315;67987;-90
2022/06/12 06:48:23;;;;;;;6.00;4.30;;;;;;;24.81;49.79;100199.93;103802;1315;76189;-90
2022/06/12 06:54:04;;;;;;;5.90;4.10;;;;;;;24.89;49.69;100196.78;103747;1315;67050;-89
2022/06/12 06:57:05;;;;;;;5.90;4.20;;;;;;;24.87;49.64;100197.30;103745;1315;67741;-89
2022/06/12 07:02:54;;;;;;;6.10;4.30;;;;;;;24.86;49.75;100200.34;103759;1315;81758;-90
2022/06/12 07:08:32;;;;;;;5.70;4.40;;;;;;;24.92;49.70;100199.10;103738;1315;67886;-90
2022/06/12 07:14:12;;;;;;;6.40;4.50;;;;;;;24.86;49.62;100198.30;103703;1315;74080;31
2022/06/12 07:20:04;;;;;;;6.20;4.40;;;;;;;24.93;49.70;100204.80;103418;1315;72213;-90
2022/06/12 07:28:31;;;;;;;5.10;4.00;;;;;;;24.87;49.66;100208.50;103801;1316;66957;-90
2022/06/12 07:34:21;;;;;;;7.40;4.60;;;;;;;24.96;49.52;100210.64;103743;1315;72111;-91
2022/06/12 07:39:57;;;;;;;7.10;4.70;;;;;;;24.93;49.49;100208.90;103770;1315;67065;-89
2022/06/12 07:45:30;;;;;;;5.60;4.50;;;;;;;24.97;49.47;100210.73;103780;1315;81849;-90
2022/06/12 07:51:19;;;;;;;7.10;4.90;;;;;;;24.99;49.44;100210.47;103662;1318;67746;-89
2022/06/12 07:56:55;;;;;;;6.00;4.40;;;;;;;24.98;49.47;100215.95;103745;1315;74258;-89
2022/06/12 08:02:33;;;;;;;5.40;4.50;;;;;;;25.04;49.49;100215.89;103809;1315;72193;-90
2022/06/12 08:08:11;;;;;;;5.60;4.60;;;;;;;24.97;49.31;100215.77;103800;1315;67674;-88
2022/06/12 08:13:47;;;;;;;5.30;4.70;;;;;;;25.05;49.44;100220.70;103645;1315;82073;-90
2022/06/12 08:25:30;;;;;;;5.30;4.80;;;;;;;25.02;49.33;100228.61;103810;1315;67749;-90
2022/06/12 08:31:07;;;;;;;5.40;4.80;;;;;;;25.04;49.24;100229.52;103770;1315;67315;-90
2022/06/12 08:36:45;;;;;;;5.90;4.40;;;;;;;25.06;49.33;100231.58;103774;1316;67743;-90
2022/06/12 08:42:36;;;;;;;5.10;4.60;;;;;;;25.09;49.22;100230.96;103756;1315;81872;-90
2022/06/12 08:48:23;;;;;;;6.10;4.60;;;;;;;25.09;49.10;100228.86;103735;1316;67191;-90
2022/06/12 08:54:09;;;;;;;4.90;4.50;;;;;;;25.11;49.09;100235.83;103758;1316;67755;-90
2022/06/12 09:00:12;;;;;;;5.50;4.60;;;;;;;25.00;49.15;100233.62;103734;1315;71680;-90
2022/06/12 09:06:00;;;;;;;5.90;4.90;;;;;;;25.01;49.14;100228.61;103766;1315;67609;-91
2022/06/12 09:11:46;;;;;;;4.90;4.50;;;;;;;25.09;49.15;100224.84;103824;1315;81800;-90
2022/06/12 09:17:43;;;;;;;5.10;4.60;;;;;;;25.03;49.14;100219.35;103732;1315;67115;-90
2022/06/12 09:23:52;;;;;;;5.40;4.90;;;;;;;25.10;49.10;100224.26;103707;1315;73576;-89
2022/06/12 09:29:23;;;;;;;5.40;4.90;;;;;;;25.07;49.07;100226.56;103776;1315;71652;-88
2022/06/12 09:35:08;;;;;;;6.00;5.40;;;;;;;25.13;48.94;100225.98;103780;1315;67876;-90
2022/06/12 09:40:44;;;;;;;5.50;5.00;;;;;;;25.10;48.91;100215.13;103772;1315;81269;-89
2022/06/12 09:52:33;;;;;;;6.30;5.40;;;;;;;25.14;48.93;100198.12;103795;1316;73480;-90
2022/06/12 10:04:20;;;;;;;6.10;5.20;;;;;;;25.11;48.98;100188.04;103751;1319;67677;-89
2022/06/12 10:12:53;;;;;;;5.40;4.90;;;;;;;25.08;48.98;100170.44;103799;1315;71417;-90
2022/06/12 10:18:31;;;;;;;5.80;5.30;;;;;;;25.14;48.98;100168.41;103738;1315;67844;-90
2022/06/12 10:24:15;;;;;;;6.10;5.50;;;;;;;25.13;48.95;100160.77;103758;1316;81246;-89
2022/06/12 10:30:03;;;;;;;;;;;;;;;25.17;48.76;100152.80;103747;1315;67988;-89
2022/06/12 10:35:58;;;;;;;5.20;4.70;;;;;;;25.15;48.75;100153.91;103742;1315;72488;-90
2022/06/12 10:41:37;;;;;;;6.50;4.80;;;;;;;25.17;48.67;100147.25;103754;1316;72210;-90
2022/06/12 10:47:36;;;;;;;5.70;5.10;;;;;;;25.20;48.53;100138.70;103760;1315;67903;-89
2022/06/12 10:53:22;;;;;;;6.00;5.10;;;;;;;25.17;48.47;100136.07;103777;1315;81729;-90
2022/06/12 10:59:09;;;;;;;6.10;5.30;;;;;;;25.22;48.51;100131.06;103774;1315;68317;-89
2022/06/12 11:04:44;;;;;;;5.50;4.70;;;;;;;25.19;48.35;100129.83;103813;1315;74107;-89
2022/06/12 11:10:38;;;;;;;5.60;4.90;;;;;;;25.25;48.30;100127.59;103745;1315;72296;-88
2022/06/12 11:13:53;;;;;;;6.00;5.00;;;;;;;25.27;48.13;100124.89;103726;1316;67759;-90
2022/06/12 11:20:07;;;;;;;5.90;4.70;;;;;;;25.23;48.15;100124.21;103796;1313;74267;-89
2022/06/12 11:25:51;;;;;;;6.10;4.70;;;;;;;25.25;47.95;100121.21;103741;1316;72282;-90
2022/06/12 11:32:11;;;;;;;5.00;4.50;;;;;;;25.20;47.97;100104.17;103319;1316;67139;-90
2022/06/12 11:37:46;;;;;;;6.30;4.80;;;;;;;25.25;47.90;100093.50;103748;1315;81889;-89
2022/06/12 11:43:25;;;;;;;6.60;4.90;;;;;;;25.25;47.85;100083.88;103773;1315;68937;-89
2022/06/12 11:49:27;;;;;;;5.60;4.60;;;;;;;25.26;47.57;100092.71;103648;1315;74080;-88
2022/06/12 11:55:22;;;;;;;5.30;4.60;;;;;;;25.28;47.59;100099.83;103758;1314;72263;31
2022/06/12 12:01:15;;;;;;;6.80;4.60;;;;;;;25.24;47.51;100092.21;100307;1315;67130;-91
2022/06/12 12:07:13;;;;;;;5.00;4.50;;;;;;;25.26;47.54;100087.62;103759;1315;82085;31
2022/06/12 12:15:31;;;;;;;6.30;4.50;;;;;;;25.31;47.05;100078.52;102606;1328;67733;-90
2022/06/12 12:24:16;;;;;;;5.50;4.00;;;;;;;25.33;47.22;100077.00;103774;1315;72120;-90
2022/06/12 12:29:50;;;;;;;4.30;3.90;;;;;;;25.34;46.92;100074.23;103768;1315;67009;-90
2022/06/12 12:44:45;;;;;;;5.10;4.50;;;;;;;25.34;46.89;100112.42;103754;1315;67816;-89
2022/06/12 12:50:34;;;;;;;5.10;4.40;;;;;;;25.37;46.85;100126.80;103701;1315;72043;-89
2022/06/12 12:56:23;;;;;;;5.30;4.50;;;;;;;25.38;46.93;100121.25;103754;1316;67895;-91
2022/06/12 13:00:00;;;;;;;5.80;3.90;;;;;;;25.38;46.83;100120.09;103718;1327;73441;-90
2022/06/12 13:05:50;;;;;;;5.70;4.40;;;;;;;25.42;46.69;100117.52;103775;1315;71927;-91
2022/06/12 13:12:01;;;;;;;4.50;4.10;;;;;;;25.39;46.52;100110.48;103769;1317;67109;-90
2022/06/12 13:17:48;;;;;;;5.10;3.90;;;;;;;25.42;46.48;100113.04;103756;1316;81394;-90
2022/06/12 13:29:27;;;;;;;4.60;3.70;;;;;;;25.43;46.42;100131.20;103765;1316;73996;-90
2022/06/12 13:35:17;;;;;;;4.50;3.80;;;;;;;25.42;46.23;100143.21;103760;1318;71926;-89
2022/06/12 13:41:16;;;;;;;4.00;3.60;;;;;;;25.43;46.20;100163.63;103786;1315;67034;-91
2022/06/12 13:49:41;;;;;;;4.10;3.20;;;;;;;25.40;45.89;100164.95;103711;1315;72093;-90
2022/06/12 13:55:13;;;;;;;5.70;3.60;;;;;;;25.42;45.78;100181.80;103790;1315;67734;-90
2022/06/12 14:00:59;;;;;;;4.60;3.50;;;;;;;25.42;45.53;100201.68;103755;1315;82238;-87
2022/06/12 14:06:55;;;;;;;3.80;3.50;;;;;;;25.41;45.66;100200.97;103720;1315;67020;31
2022/06/12 14:12:33;;;;;;;4.90;3.40;;;;;;;25.43;45.52;100205.16;103792;1318;74036;-91
2022/06/12 14:21:00;;;;;;;4.50;3.80;;;;;;;25.39;45.51;100209.16;103767;1315;67754;-89
2022/06/12 14:26:50;;;;;;;5.40;3.60;;;;;;;25.39;45.36;100212.52;103774;1314;74505;-90
2022/06/12 14:32:37;;;;;;;4.60;3.50;;;;;;;25.36;45.56;100213.14;103810;1315;67091;-90
2022/06/12 14:38:14;;;;;;;4.50;4.00;;;;;;;25.41;45.34;100212.88;103719;1315;67648;-90
2022/06/12 14:44:06;;;;;;;4.50;3.80;;;;;;;25.41;45.55;100212.23;103777;1315;82113;-89
2022/06/12 14:49:45;;;;;;;4.50;3.80;;;;;;;25.40;45.48;100212.90;103716;1315;67876;-89
2022/06/12 14:55:28;;;;;;;4.30;3.90;;;;;;;25.37;45.71;100212.50;103746;1315;74354;-90
2022/06/12 15:01:02;;;;;;;4.20;3.50;;;;;;;25.31;45.55;100217.25;103720;1315;72364;-91
2022/06/12 15:06:41;;;;;;;4.00;3.50;;;;;;;25.28;45.67;100215.11;103759;1315;67298;-91
2022/06/12 15:12:15;;;;;;;7.70;4.00;;;;;;;25.38;45.56;100213.11;103796;1319;81842;-90
2022/06/12 15:20:36;;;;;;;4.00;3.40;;;;;;;25.34;45.37;100214.20;103778;1315;67860;-89
2022/06/12 15:32:10;;;;;;;5.00;3.80;;;;;;;25.35;45.14;100221.09;103820;1315;67109;-89
2022/06/12 15:37:41;;;;;;;6.20;3.40;;;;;;;25.36;45.36;100234.81;103740;1315;74514;-89
2022/06/12 15:43:15;;;;;;;4.40;3.50;;;;;;;25.38;45.09;100243.85;103747;1315;71198;-91
2022/06/12 15:48:51;;;;;;;4.40;3.40;;;;;;;25.35;45.16;100255.48;103755;1315;67121;-90
2022/06/12 15:54:27;;;;;;;4.20;3.50;;;;;;;25.40;45.02;100259.20;103713;1315;81882;-89
2022/06/12 16:03:19;;;;;;;3.60;3.30;;;;;;;25.34;44.95;100269.03;103733;1315;69522;31
2022/06/12 16:09:14;;;;;;;3.40;3.10;;;;;;;25.37;44.99;100278.10;103735;1315;81933;31
2022/06/12 16:17:38;;;;;;;4.40;3.00;;;;;;;25.35;44.88;100278.04;103764;1322;67836;-91
2022/06/12 16:26:36;;;;;;;3.60;3.30;;;;;;;25.31;44.85;100284.52;103712;1317;67108;-89
2022/06/12 16:35:32;;;;;;;4.60;3.10;;;;;;;25.37;44.72;100280.11;103778;1315;67878;-89
2022/06/12 16:41:45;;;;;;;3.40;3.10;;;;;;;25.32;44.51;100293.45;103745;1315;71293;-90
2022/06/12 16:46:59;;;;;;;4.90;3.80;;;;;;;25.36;44.52;100288.17;103692;1315;67955;-89
2022/06/12 16:52:43;;;;;;;5.60;4.00;;;;;;;25.34;44.29;100290.64;103827;1315;75033;-90
2022/06/12 16:58:32;;;;;;;4.80;4.00;;;;;;;25.37;44.29;100293.82;103781;1315;67744;-91
2022/06/12 17:04:10;;;;;;;5.90;4.20;;;;;;;25.38;44.10;100291.73;103771;1315;74268;-89
2022/06/12 17:09:48;;;;;;;4.60;4.10;;;;;;;25.32;44.00;100296.43;103713;1316;72368;-89
2022/06/12 17:15:25;;;;;;;5.30;4.10;;;;;;;25.37;43.97;100292.02;103787;1315;68305;-88
2022/06/12 17:21:10;;;;;;;5.40;3.80;;;;;;;25.34;44.10;100299.67;103789;1315;84111;-88
2022/06/12 17:24:11;;;;;;;4.10;3.70;;;;;;;25.34;43.86;100299.48;103719;1315;72382;-89
2022/06/12 17:30:08;;;;;;;8.20;4.50;;;;;;;25.38;43.77;100316.30;100334;1315;67042;-89
2022/06/12 17:35:44;;;;;;;5.30;4.50;;;;;;;25.31;43.89;100322.92;103769;1319;81892;-91
2022/06/12 17:44:10;;;;;;;5.20;4.70;;;;;;;25.38;43.68;100357.35;103788;1315;67830;-90
2022/06/12 17:49:47;;;;;;;7.90;5.10;;;;;;;25.38;43.56;100368.27;103750;1315;81682;-89
2022/06/12 17:55:18;;;;;;;8.00;5.30;;;;;;;25.37;43.47;100363.14;103682;1315;68043;-90
2022/06/12 18:00:57;;;;;;;5.80;5.20;;;;;;;25.28;43.67;100355.48;103741;1315;74389;-90
2022/06/12 18:06:38;;;;;;;7.10;5.10;;;;;;;25.26;43.99;100344.41;103771;1315;67201;-89
2022/06/12 18:09:41;;;;;;;7.80;5.20;;;;;;;25.29;44.05;100334.75;103757;1315;68537;-88
2022/06/12 18:21:29;;;;;;;5.30;4.70;;;;;;;25.35;44.51;100341.94;103651;1315;72278;-89
2022/06/12 18:27:03;;;;;;;5.60;4.70;;;;;;;25.40;44.50;100348.45;103795;1315;67860;-88
2022/06/12 18:32:51;;;;;;;5.70;4.60;;;;;;;25.35;44.72;100355.65;103784;1315;81829;31
2022/06/12 18:41:06;;;;;;;8.40;4.60;;;;;;;25.41;44.54;100346.88;103783;1316;67879;-89
2022/06/12 18:46:56;;;;;;;5.40;3.90;;;;;;;25.37;44.54;100328.77;103798;1315;81801;-91
2022/06/12 18:52:32;;;;;;;3.80;3.40;;;;;;;25.43;44.15;100335.90;103751;1315;67878;-91
2022/06/12 18:58:23;;;;;;;6.30;3.80;;;;;;;25.34;43.97;100343.10;103753;1315;74228;-90
2022/06/12 19:03:59;;;;;;;3.90;3.30;;;;;;;25.41;43.50;100373.45;103776;1315;72348;-89
2022/06/12 19:09:31;;;;;;;4.70;3.00;;;;;;;25.32;43.37;100380.90;103749;1315;67265;-90
2022/06/12 19:12:34;;;;;;;3.30;2.80;;;;;;;25.33;43.24;100381.90;103746;1315;74358;-90
2022/06/12 19:18:27;;;;;;;2.90;2.50;;;;;;;25.39;42.81;100374.80;103715;1315;72313;-89
2022/06/12 19:24:07;;;;;;;2.90;2.60;;;;;;;25.31;42.59;100363.51;103773;1315;67527;-90
2022/06/12 19:29:45;;;;;;;2.90;2.50;;;;;;;25.36;42.44;100351.51;99487;1316;82052;-90
2022/06/12 19:35:23;;;;;;;3.20;2.40;;;;;;;25.28;42.23;100351.47;103788;1316;68009;-89
2022/06/12 19:43:46;;;;;;;3.60;2.60;;;;;;;25.34;41.93;100380.70;103743;1318;81904;-91
2022/06/12 19:52:19;;;;;;;3.10;2.80;;;;;;;25.30;42.03;100389.91;103743;1315;67848;-91
2022/06/12 19:57:54;;;;;;;4.30;2.80;;;;;;;25.30;41.81;100381.60;103790;1315;75116;-89
2022/06/12 20:03:31;;;;;;;3.00;2.50;;;;;;;25.25;42.11;100377.94;103782;1315;67946;-91
2022/06/12 20:09:08;;;;;;;4.20;2.60;;;;;;;25.31;41.98;100382.25;103765;1315;67789;-89
2022/06/12 20:14:52;;;;;;;4.30;3.10;;;;;;;25.25;42.16;100385.98;103813;1315;67680;-91
2022/06/12 20:18:14;;;;;;;3.90;2.60;;;;;;;25.29;42.26;100385.69;103817;1315;67708;-89
2022/06/12 20:23:55;;;;;;;4.80;2.90;;;;;;;25.29;42.16;100383.62;103731;1318;75908;-88
2022/06/12 20:29:36;;;;;;;3.00;2.60;;;;;;;25.25;42.32;100386.14;103754;1315;74679;-88
2022/06/12 20:32:41;;;;;;;3.50;2.60;;;;;;;25.30;42.33;100384.95;103675;1318;67759;-90
2022/06/12 20:35:43;;;;;;;4.20;2.90;;;;;;;25.31;42.24;100386.77;103799;1315;67391;-91
2022/06/12 20:41:42;;;;;;;4.30;2.80;;;;;;;25.29;42.27;100390.57;103741;1315;81855;-89
2022/06/12 20:44:45;;;;;;;6.00;2.80;;;;;;;25.27;42.15;100384.23;103709;1315;72259;-91
2022/06/12 20:50:34;;;;;;;3.50;2.30;;;;;;;25.23;42.06;100393.73;103730;1315;67710;-90
2022/06/12 20:56:14;;;;;;;2.80;2.60;;;;;;;25.19;42.25;100384.34;103798;1316;81914;31
2022/06/12 21:04:36;;;;;;;4.40;2.90;;;;;;;25.10;42.61;100385.27;103792;1315;67855;-90
2022/06/12 21:16:36;;;;;;;5.60;3.00;;;;;;;25.18;42.69;100381.98;103782;1315;65715;-90
2022/06/12 21:25:29;;;;;;;4.80;3.20;;;;;;;25.23;43.03;100368.92;103800;1315;82733;-89
2022/06/12 21:31:19;;;;;;;3.60;3.20;;;;;;;25.19;43.07;100370.60;103770;1314;68174;-88
2022/06/12 21:36:55;;;;;;;9.10;3.80;;;;;;;25.22;43.42;100362.65;103782;1315;67598;-89
2022/06/12 21:39:56;;;;;;;5.80;3.30;;;;;;;25.25;43.57;100364.41;103759;1315;81935;-89
2022/06/12 21:45:48;;;;;;;4.80;3.30;;;;;;;25.19;43.89;100363.39;103726;1315;67081;-90
2022/06/12 21:54:34;;;;;;;4.20;3.30;;;;;;;25.22;44.30;100363.84;103753;1316;80637;-90
2022/06/12 22:00:13;;;;;;;7.00;3.30;;;;;;;25.20;44.50;100369.29;103755;1316;67178;-91
2022/06/12 22:06:03;;;;;;;5.90;3.90;;;;;;;25.23;44.98;100372.47;103795;1315;74316;-90
2022/06/12 22:11:37;;;;;;;4.90;3.50;;;;;;;25.17;45.17;100376.54;103753;1315;72303;-90
2022/06/12 22:17:13;;;;;;;6.80;3.90;;;;;;;25.23;45.43;100363.83;103755;1315;67718;-90
2022/06/12 22:22:55;;;;;;;4.30;3.60;;;;;;;25.19;45.73;100363.39;103771;1315;82012;-90
2022/06/12 22:31:17;;;;;;;5.80;4.40;;;;;;;25.24;45.97;100356.18;103720;1326;67634;-90
2022/06/12 22:37:10;;;;;;;5.40;3.80;;;;;;;25.17;46.14;100347.46;103773;1316;81877;-89
2022/06/12 22:42:50;;;;;;;7.00;3.90;;;;;;;25.21;46.37;100349.71;103721;1315;67924;-90
2022/06/12 22:48:28;;;;;;;7.30;4.00;;;;;;;25.17;46.53;100344.86;103745;1318;74181;-89
2022/06/12 22:54:02;;;;;;;8.30;3.80;;;;;;;25.17;46.61;100347.81;103761;1315;72380;-90
2022/06/12 22:59:38;;;;;;;5.00;4.20;;;;;;;25.18;46.82;100349.70;103720;1315;67386;-90
2022/06/12 23:05:19;;;;;;;6.90;3.90;;;;;;;25.12;47.03;100345.30;103759;1315;81334;-90
2022/06/12 23:10:51;;;;;;;7.80;4.30;;;;;;;25.18;47.05;100343.33;103788;1315;67714;-90
2022/06/12 23:16:29;;;;;;;5.20;3.70;;;;;;;25.15;46.93;100340.65;103803;1316;67783;-90
2022/06/12 23:19:30;;;;;;;4.60;4.10;;;;;;;25.15;46.94;100334.64;103736;1316;81766;-92
2022/06/12 23:28:44;;;;;;;5.10;4.10;;;;;;;25.15;47.07;100331.06;103836;1315;67863;31
2022/06/12 23:31:49;;;;;;;6.40;3.90;;;;;;;25.14;47.02;100326.89;103647;1318;74163;-90
2022/06/12 23:37:42;;;;;;;5.50;4.10;;;;;;;25.17;46.94;100324.33;103761;1315;72078;-88
2022/06/12 23:43:41;;;;;;;6.80;4.20;;;;;;;25.15;46.99;100320.90;103672;1315;67618;31
2022/06/12 23:49:22;;;;;;;4.90;4.30;;;;;;;25.12;47.05;100311.94;103761;1315;81826;-91
2022/06/12 23:57:47;;;;;;;5.30;4.00;;;;;;;25.07;46.97;100315.27;103793;1315;67156;-90
